Time;durP1;ratioP1;P1;durP2;ratioP2;P2;SDS_P1;SDS_P2;PMS_P1;PMS_P2;Temp;Humidity;BMP_temperature;BMP_pressure;BME280_temperature;BME280_humidity;BME280_pressure;Samples;Min_cycle;Max_cycle;Signal;HPM_P1;HPM_P2
2022/08/08 00:00:21;;;;;;;9.77;5.20;;;;;;;17.54;66.00;102657.50;4984252;28;20760;-57
2022/08/08 00:03:07;;;;;;;8.43;4.97;;;;;;;17.54;66.06;102657.50;4978284;28;20056;-56
2022/08/08 00:05:42;;;;;;;8.57;5.03;;;;;;;17.44;66.27;102656.50;4976326;28;20058;-56
2022/08/08 00:08:19;;;;;;;8.73;5.63;;;;;;;17.28;66.81;102660.66;4980273;28;20107;-56
2022/08/08 00:11:27;;;;;;;9.05;5.80;;;;;;;17.21;68.16;102665.81;4972531;28;20392;-54
2022/08/08 00:14:17;;;;;;;7.90;5.15;;;;;;;17.25;68.31;102660.63;4980180;28;20151;-53
2022/08/08 00:16:53;;;;;;;6.20;4.28;;;;;;;17.37;68.17;102659.91;4983997;28;20479;-56
2022/08/08 00:19:27;;;;;;;7.30;4.80;;;;;;;17.33;67.94;102653.69;4986247;28;20041;-55
2022/08/08 00:22:02;;;;;;;7.93;4.97;;;;;;;17.29;67.47;102657.16;4971379;28;20621;-55
2022/08/08 00:24:35;;;;;;;8.05;4.93;;;;;;;17.25;67.33;102657.09;4983974;28;20045;-57
2022/08/08 00:27:10;;;;;;;7.75;4.60;;;;;;;17.21;67.17;102650.00;4987996;28;20080;-56
2022/08/08 00:29:40;;;;;;;5.88;4.47;;;;;;;17.13;67.61;102652.53;4981622;28;20029;-56
2022/08/08 00:32:14;;;;;;;8.57;4.53;;;;;;;17.06;67.99;102645.41;4978638;28;20045;-56
2022/08/08 00:37:36;;;;;;;5.90;4.35;;;;;;;17.02;67.85;102649.72;4972153;28;20094;-56
2022/08/08 00:40:20;;;;;;;5.47;4.13;;;;;;;17.09;67.82;102640.16;4984958;28;20025;-56
2022/08/08 00:43:14;;;;;;;6.72;4.32;;;;;;;16.99;68.30;102639.16;4986360;28;20120;-55
2022/08/08 00:46:19;;;;;;;5.70;4.10;;;;;;;16.98;68.16;102637.38;4972441;28;20033;-56
2022/08/08 00:49:03;;;;;;;7.43;4.50;;;;;;;16.92;68.34;102639.91;4979634;28;20029;-56
2022/08/08 00:51:55;;;;;;;7.77;4.30;;;;;;;16.90;68.17;102639.00;4968035;28;20068;-56
2022/08/08 00:54:45;;;;;;;7.20;3.70;;;;;;;16.98;67.86;102636.50;4991979;28;20567;-54
2022/08/08 00:57:45;;;;;;;6.93;4.18;;;;;;;16.90;67.82;102638.09;4975679;28;20043;-55
2022/08/08 01:00:19;;;;;;;7.53;4.47;;;;;;;16.77;68.98;102633.53;4976520;28;20537;-55
2022/08/08 01:03:04;;;;;;;8.20;4.30;;;;;;;16.84;69.03;102633.63;4986279;28;20032;-56
2022/08/08 01:05:39;;;;;;;8.40;4.40;;;;;;;16.88;69.18;102630.22;4982790;28;20045;-56
2022/08/08 01:08:24;;;;;;;;;;;;;;;16.93;68.95;102633.78;4972319;28;20041;-55
2022/08/08 01:11:22;;;;;;;6.50;3.90;;;;;;;16.93;68.46;102638.16;4983487;28;19936;-56
2022/08/08 01:14:27;;;;;;;6.38;3.95;;;;;;;16.92;68.48;102633.75;4974387;28;20396;-59
2022/08/08 01:17:18;;;;;;;5.87;3.50;;;;;;;16.98;68.16;102634.75;5001164;28;20520;-54
2022/08/08 01:20:11;;;;;;;6.50;4.20;;;;;;;16.92;67.99;102636.41;4981946;28;20468;-55
2022/08/08 01:23:00;;;;;;;5.90;4.20;;;;;;;16.83;68.63;102638.91;4978987;28;20041;-56
2022/08/08 01:25:51;;;;;;;6.80;4.35;;;;;;;16.70;68.66;102632.56;4983312;28;20033;-56
2022/08/08 01:28:17;;;;;;;9.77;4.40;;;;;;;16.64;69.44;102629.81;4976257;28;20287;-56
2022/08/08 01:31:22;;;;;;;7.00;4.28;;;;;;;16.65;70.26;102628.94;4992408;28;20037;-56
2022/08/08 01:34:35;;;;;;;8.45;4.40;;;;;;;16.71;69.99;102623.75;4986070;28;20629;-56
2022/08/08 01:37:15;;;;;;;7.28;4.25;;;;;;;16.70;69.87;102626.41;4945709;28;21053;-54
2022/08/08 01:40:07;;;;;;;7.95;4.68;;;;;;;16.66;69.77;102621.91;4956360;28;20038;-55
2022/08/08 01:42:44;;;;;;;8.68;4.32;;;;;;;16.66;69.79;102622.81;4983946;28;20567;-54
2022/08/08 01:45:35;;;;;;;5.97;4.20;;;;;;;16.64;69.60;102629.81;4978747;28;20677;-54
2022/08/08 01:48:28;;;;;;;5.78;3.83;;;;;;;16.68;69.23;102625.47;4989057;28;20067;-54
2022/08/08 01:51:11;;;;;;;6.60;4.45;;;;;;;16.60;69.64;102620.97;4985096;28;20978;-55
2022/08/08 01:53:48;;;;;;;7.80;4.80;;;;;;;16.56;69.80;102615.59;4982760;28;20416;-55
2022/08/08 01:56:26;;;;;;;6.50;4.40;;;;;;;16.65;69.97;102617.53;4994042;28;20037;-54
2022/08/08 01:59:10;;;;;;;4.80;3.88;;;;;;;16.70;69.52;102631.66;4971281;28;20671;-53
2022/08/08 02:01:54;;;;;;;7.07;4.10;;;;;;;16.72;69.62;102632.56;4980360;28;20037;-55
2022/08/08 02:04:27;;;;;;;6.25;3.90;;;;;;;16.77;69.10;102629.13;4997880;28;20045;-55
2022/08/08 02:07:03;;;;;;;5.13;3.88;;;;;;;16.78;68.67;102630.91;4981769;28;20043;-56
2022/08/08 02:10:30;;;;;;;7.20;4.38;;;;;;;16.71;68.66;102639.56;4986757;28;20041;-56
2022/08/08 02:13:37;;;;;;;7.57;4.10;;;;;;;16.64;68.61;102629.81;4987193;28;20049;-56
2022/08/08 02:16:17;;;;;;;9.05;4.15;;;;;;;16.56;69.08;102637.56;4974987;28;20053;-56
2022/08/08 02:18:51;;;;;;;7.38;4.18;;;;;;;16.60;68.97;102639.41;4969783;28;20029;-56
2022/08/08 02:24:16;;;;;;;9.70;4.82;;;;;;;16.56;69.16;102634.03;4989168;28;20193;-57
2022/08/08 02:27:08;;;;;;;8.75;4.80;;;;;;;16.54;69.24;102631.38;4998796;28;20038;-56
2022/08/08 02:29:47;;;;;;;9.38;5.60;;;;;;;16.43;69.30;102638.19;4975917;28;21489;-57
2022/08/08 02:32:41;;;;;;;8.95;5.53;;;;;;;16.45;69.51;102646.13;4987718;28;20061;-57
2022/08/08 02:35:37;;;;;;;8.40;5.85;;;;;;;16.42;69.64;102641.69;4984387;28;20053;-56
2022/08/08 02:38:26;;;;;;;9.52;5.97;;;;;;;16.41;69.67;102637.28;4984032;28;20026;-56
2022/08/08 02:41:16;;;;;;;9.05;6.20;;;;;;;16.40;69.54;102645.16;4990503;28;20482;-56
2022/08/08 02:44:16;;;;;;;9.05;6.40;;;;;;;16.33;69.84;102640.66;4982003;28;20459;-56
2022/08/08 02:46:46;;;;;;;9.82;7.20;;;;;;;16.25;70.18;102637.88;4993098;28;20532;-55
2022/08/08 02:49:39;;;;;;;13.52;7.50;;;;;;;16.27;70.51;102643.16;4988583;28;20562;-57
2022/08/08 02:52:44;;;;;;;8.95;6.80;;;;;;;16.22;70.81;102643.94;4976287;28;20053;-56
2022/08/08 02:55:27;;;;;;;9.67;6.97;;;;;;;16.23;70.74;102643.09;4989277;28;20033;-55
2022/08/08 02:58:24;;;;;;;11.25;7.15;;;;;;;16.29;70.69;102641.44;4979839;28;20049;-55
2022/08/08 03:01:19;;;;;;;11.90;7.40;;;;;;;16.22;70.63;102645.72;4988279;28;20051;-56
2022/08/08 03:04:22;;;;;;;10.63;7.45;;;;;;;16.12;71.05;102652.53;4991752;28;20349;-56
2022/08/08 03:07:23;;;;;;;14.10;7.72;;;;;;;16.15;71.13;102651.72;4993719;28;20048;-57
2022/08/08 03:10:17;;;;;;;13.38;7.72;;;;;;;16.19;70.92;102649.19;4969427;28;20873;-57
2022/08/08 03:13:24;;;;;;;10.85;7.50;;;;;;;16.16;70.77;102650.88;4983701;28;20148;-57
2022/08/08 03:16:11;;;;;;;13.23;7.82;;;;;;;16.09;71.23;102655.13;5005200;28;20110;-56
2022/08/08 03:18:36;;;;;;;12.25;7.70;;;;;;;16.14;70.98;102652.59;5011192;28;20056;-56
2022/08/08 03:21:01;;;;;;;11.15;7.00;;;;;;;16.19;71.08;102656.19;4980888;28;20037;-56
2022/08/08 03:23:29;;;;;;;10.02;6.88;;;;;;;16.24;70.88;102654.50;4968406;28;20049;-55
2022/08/08 03:25:56;;;;;;;9.38;6.80;;;;;;;16.19;70.22;102650.91;4996642;28;20117;-56
2022/08/08 03:28:42;;;;;;;11.90;7.35;;;;;;;16.09;70.79;102656.88;4968896;28;20045;-56
2022/08/08 03:33:52;;;;;;;10.02;6.95;;;;;;;16.20;70.89;102656.22;4961218;28;20056;-55
2022/08/08 03:36:18;;;;;;;9.93;6.60;;;;;;;16.26;70.60;102654.56;4990930;28;20030;-55
2022/08/08 03:38:49;;;;;;;10.65;7.25;;;;;;;16.19;70.16;102654.44;4982896;28;20036;-55
2022/08/08 03:41:14;;;;;;;11.98;7.03;;;;;;;16.06;70.55;102660.31;4977801;28;20448;-57
2022/08/08 03:43:40;;;;;;;11.18;7.15;;;;;;;16.11;70.92;102663.03;4970957;28;20124;-54
2022/08/08 03:46:06;;;;;;;9.23;6.70;;;;;;;16.18;70.92;102659.66;4992545;28;20176;-57
2022/08/08 03:48:32;;;;;;;9.95;6.30;;;;;;;16.21;70.96;102657.09;4977967;28;20041;-54
2022/08/08 03:50:57;;;;;;;11.32;7.20;;;;;;;16.14;70.56;102664.00;4992129;28;20029;-56
2022/08/08 03:53:24;;;;;;;11.60;7.43;;;;;;;16.00;71.17;102661.94;4975707;28;20049;-57
2022/08/08 03:55:49;;;;;;;12.10;7.18;;;;;;;16.05;71.53;102665.53;4998390;28;20053;-58
2022/08/08 03:58:20;;;;;;;9.88;6.60;;;;;;;16.11;71.28;102661.28;4976748;28;20552;-55
2022/08/08 04:00:54;;;;;;;9.68;6.45;;;;;;;16.18;71.18;102652.66;4990128;28;20033;-55
2022/08/08 04:03:20;;;;;;;10.40;6.20;;;;;;;16.27;70.70;102661.59;4986895;28;20026;-55
2022/08/08 04:05:46;;;;;;;8.45;6.53;;;;;;;16.30;70.68;102664.25;4980838;28;20387;-56
2022/08/08 04:08:20;;;;;;;9.15;6.55;;;;;;;16.23;70.13;102672.03;4987372;28;20033;-56
2022/08/08 04:10:50;;;;;;;;;;;;;;;16.23;70.10;102668.53;4986679;28;20038;-56
2022/08/08 04:13:16;;;;;;;10.10;6.30;;;;;;;16.17;69.55;102679.81;4984534;28;20000;-55
2022/08/08 04:15:43;;;;;;;9.07;6.82;;;;;;;16.09;70.05;102673.56;4978124;28;20049;-56
2022/08/08 04:18:08;;;;;;;9.38;6.18;;;;;;;16.13;70.34;102680.63;4990605;28;20013;-55
2022/08/08 04:20:33;;;;;;;10.77;6.15;;;;;;;16.19;70.39;102680.75;4981320;28;20048;-56
2022/08/08 04:22:59;;;;;;;9.93;6.25;;;;;;;16.26;70.36;102684.41;4987732;28;20858;-56
2022/08/08 04:25:25;;;;;;;10.82;6.55;;;;;;;16.21;70.14;102686.06;4974372;28;20108;-56
2022/08/08 04:27:51;;;;;;;9.43;5.90;;;;;;;16.27;70.22;102693.19;4981221;28;20045;-55
2022/08/08 04:30:20;;;;;;;9.30;6.00;;;;;;;16.32;69.90;102696.78;4988153;28;20750;-54
2022/08/08 04:32:46;;;;;;;9.27;6.25;;;;;;;16.34;69.59;102688.06;4986230;28;21701;-55
2022/08/08 04:35:12;;;;;;;10.70;6.45;;;;;;;16.32;69.49;102691.50;4983878;28;20041;-55
2022/08/08 04:37:37;;;;;;;10.13;6.50;;;;;;;16.28;69.59;102703.75;4984106;28;20610;-57
2022/08/08 04:40:03;;;;;;;8.93;6.82;;;;;;;16.23;70.02;102697.47;4976143;28;20056;-57
2022/08/08 04:42:32;;;;;;;12.23;7.25;;;;;;;16.24;70.13;102709.78;4987317;28;20052;-56
2022/08/08 04:44:59;;;;;;;10.90;7.75;;;;;;;16.32;70.27;102709.94;4968590;28;20052;-56
2022/08/08 04:47:32;;;;;;;11.68;7.90;;;;;;;16.28;70.58;102705.47;4984619;28;20038;-56
2022/08/08 04:49:58;;;;;;;13.85;8.45;;;;;;;16.26;71.09;102710.72;4976404;28;20116;-56
2022/08/08 04:52:24;;;;;;;12.98;8.48;;;;;;;16.36;71.24;102712.66;4985241;28;21012;-54
2022/08/08 04:54:49;;;;;;;13.07;8.15;;;;;;;16.45;71.27;102704.03;4985966;28;20018;-56
2022/08/08 04:57:15;;;;;;;11.68;8.38;;;;;;;16.51;70.90;102702.41;4978995;28;20025;-55
2022/08/08 04:59:40;;;;;;;11.63;8.10;;;;;;;16.55;70.99;102701.59;4975547;28;20285;-55
2022/08/08 05:02:06;;;;;;;13.93;8.02;;;;;;;16.54;71.48;102705.09;4983748;28;20259;-56
2022/08/08 05:04:32;;;;;;;12.10;8.13;;;;;;;16.75;71.45;102712.53;4985030;28;20197;-56
2022/08/08 05:06:58;;;;;;;11.68;7.63;;;;;;;16.91;70.82;102709.28;4979154;28;20021;-57
2022/08/08 05:09:24;;;;;;;11.18;7.53;;;;;;;16.99;69.78;102706.78;4985137;28;20029;-56
2022/08/08 05:11:50;;;;;;;11.45;7.20;;;;;;;17.04;69.42;102705.09;4984727;28;20497;-58
2022/08/08 05:14:16;;;;;;;11.05;7.85;;;;;;;17.07;69.35;102710.44;4991600;28;20025;-56
2022/08/08 05:16:41;;;;;;;9.25;6.72;;;;;;;17.17;69.39;102716.72;4984067;28;20115;-55
2022/08/08 05:19:11;;;;;;;11.88;7.00;;;;;;;17.32;68.75;102714.31;4981796;28;20025;-55
2022/08/08 05:21:43;;;;;;;9.18;6.60;;;;;;;17.42;68.55;102716.22;4969211;28;20025;-57
2022/08/08 05:24:09;;;;;;;11.52;6.80;;;;;;;17.51;67.98;102711.06;4989256;28;20033;-54
2022/08/08 05:26:37;;;;;;;11.52;6.90;;;;;;;17.53;68.24;102716.38;4984306;28;20391;-57
2022/08/08 05:29:07;;;;;;;12.00;6.97;;;;;;;17.67;68.17;102712.22;4998844;28;20031;-56
2022/08/08 05:31:35;;;;;;;9.25;6.03;;;;;;;17.79;67.42;102715.91;4977144;28;20507;-55
2022/08/08 05:34:29;;;;;;;9.15;6.38;;;;;;;18.03;66.79;102717.94;4987020;28;20139;-55
2022/08/08 05:36:58;;;;;;;10.85;6.10;;;;;;;18.24;66.10;102717.28;4978435;28;20042;-56
2022/08/08 05:39:24;;;;;;;8.60;5.38;;;;;;;18.61;65.97;102708.03;4980823;28;20931;-56
2022/08/08 05:41:52;;;;;;;8.80;5.55;;;;;;;19.00;64.17;102705.72;4982167;28;20075;-56
2022/08/08 05:44:25;;;;;;;10.63;6.40;;;;;;;18.91;63.94;102718.88;4981936;28;20068;-59
2022/08/08 05:46:52;;;;;;;8.97;6.10;;;;;;;18.99;63.82;102719.81;4990963;28;20036;-56
2022/08/08 05:49:18;;;;;;;11.95;5.68;;;;;;;18.99;64.70;102725.09;4969853;28;20120;-54
2022/08/08 05:51:45;;;;;;;8.45;5.65;;;;;;;19.21;63.97;102720.00;4975435;28;20042;-56
2022/08/08 05:54:14;;;;;;;9.93;5.55;;;;;;;19.40;63.82;102721.84;4979406;28;20068;-56
2022/08/08 05:56:41;;;;;;;8.05;5.50;;;;;;;19.35;63.29;102723.59;4970942;28;20041;-55
2022/08/08 05:59:16;;;;;;;9.20;5.82;;;;;;;19.46;63.69;102723.72;4985212;28;20099;-56
2022/08/08 06:01:42;;;;;;;10.57;5.18;;;;;;;19.66;62.94;102722.94;4990217;28;20316;-56
2022/08/08 06:04:10;;;;;;;9.82;5.38;;;;;;;19.89;62.52;102723.03;4995719;28;20133;-56
2022/08/08 06:06:40;;;;;;;10.60;5.82;;;;;;;19.98;61.50;102714.25;4978705;28;20124;-55
2022/08/08 06:09:08;;;;;;;10.70;5.72;;;;;;;20.09;61.32;102724.00;4996380;28;20029;-56
2022/08/08 06:11:34;;;;;;;8.85;5.63;;;;;;;19.66;61.64;102725.59;4981554;28;20829;-55
2022/08/08 06:14:01;;;;;;;10.23;5.57;;;;;;;19.67;62.79;102727.38;4983564;28;20079;-58
2022/08/08 06:16:30;;;;;;;10.23;5.95;;;;;;;19.71;62.20;102731.78;4982518;28;20143;-56
2022/08/08 06:19:01;;;;;;;8.77;5.60;;;;;;;20.50;60.38;102720.59;4988160;28;20064;-52
2022/08/08 06:21:31;;;;;;;11.05;5.13;;;;;;;21.99;55.05;102721.34;4996773;28;20026;-56
2022/08/08 06:23:57;;;;;;;11.57;4.85;;;;;;;23.27;53.05;102731.97;4972000;28;20037;-55
2022/08/08 06:26:29;;;;;;;9.77;4.60;;;;;;;24.43;49.86;102725.28;4982547;28;20326;-58
2022/08/08 06:29:25;;;;;;;8.90;4.80;;;;;;;25.51;47.23;102731.44;4972026;28;20053;-58
2022/08/08 06:31:58;;;;;;;7.50;3.90;;;;;;;26.12;44.03;102726.63;4978861;28;20029;-54
2022/08/08 06:34:33;;;;;;;9.38;3.80;;;;;;;26.95;42.49;102728.28;4997447;28;20106;-55
2022/08/08 06:37:01;;;;;;;8.30;3.47;;;;;;;27.69;40.18;102731.63;4989226;28;20029;-55
2022/08/08 06:39:30;;;;;;;12.18;3.90;;;;;;;26.51;42.33;102724.88;4978108;28;20034;-51
2022/08/08 06:41:58;;;;;;;9.63;3.60;;;;;;;26.84;42.29;102731.19;4987738;28;20075;-56
2022/08/08 06:44:24;;;;;;;7.07;3.80;;;;;;;26.61;42.61;102725.53;4989862;28;20033;-56
2022/08/08 06:46:51;;;;;;;6.57;3.50;;;;;;;27.29;41.94;102733.63;4985066;28;20116;-57
2022/08/08 06:49:23;;;;;;;7.20;3.40;;;;;;;26.75;43.53;102731.44;4994585;28;20040;-57
2022/08/08 06:51:49;;;;;;;9.65;3.80;;;;;;;26.85;42.59;102737.41;4966800;28;21138;-58
2022/08/08 06:54:14;;;;;;;4.85;3.22;;;;;;;27.78;40.90;102728.69;4986587;28;20149;-58
2022/08/08 06:56:40;;;;;;;6.28;3.70;;;;;;;28.30;39.65;102737.00;4978795;28;20032;-57
2022/08/08 06:59:06;;;;;;;6.38;3.70;;;;;;;27.80;41.02;102734.00;4996050;28;20136;-56
2022/08/08 07:01:44;;;;;;;5.80;3.22;;;;;;;28.11;39.37;102736.66;4977979;28;20086;-58
2022/08/08 07:04:19;;;;;;;7.10;4.05;;;;;;;27.22;41.11;102732.03;4964285;28;20060;-56
2022/08/08 07:07:08;;;;;;;7.38;4.18;;;;;;;27.38;41.04;102741.44;4978362;28;20056;-55
2022/08/08 07:09:41;;;;;;;7.35;4.35;;;;;;;27.39;40.45;102744.03;4976597;28;20037;-55
2022/08/08 07:12:07;;;;;;;8.63;3.90;;;;;;;27.58;41.24;102736.41;4979590;28;20026;-55
2022/08/08 07:14:57;;;;;;;7.28;4.20;;;;;;;27.85;40.24;102735.63;4983447;28;20079;-56
2022/08/08 07:17:31;;;;;;;7.95;3.90;;;;;;;28.02;39.88;102742.28;4978140;28;20041;-54
2022/08/08 07:20:06;;;;;;;7.50;4.22;;;;;;;28.14;40.20;102753.56;4982324;28;20029;-56
2022/08/08 07:22:49;;;;;;;9.85;4.10;;;;;;;28.95;38.32;102753.69;4987820;28;20504;-55
2022/08/08 07:25:15;;;;;;;9.70;4.30;;;;;;;27.67;40.72;102752.25;4978993;28;20660;-56
2022/08/08 07:27:53;;;;;;;6.88;3.83;;;;;;;28.87;38.09;102751.25;4974932;28;20111;-57
2022/08/08 07:30:19;;;;;;;8.02;3.50;;;;;;;28.58;38.70;102751.28;4982475;28;20036;-55
2022/08/08 07:32:47;;;;;;;7.07;3.90;;;;;;;27.88;41.15;102750.72;4983183;28;20415;-56
2022/08/08 07:35:13;;;;;;;5.97;3.22;;;;;;;27.64;40.22;102759.47;4976719;28;20050;-55
2022/08/08 07:37:39;;;;;;;6.10;2.70;;;;;;;27.90;41.01;102761.41;4982113;28;20029;-57
2022/08/08 07:40:06;;;;;;;5.63;2.30;;;;;;;28.89;38.72;102754.78;4982022;28;20106;-56
2022/08/08 07:42:36;;;;;;;9.18;2.80;;;;;;;28.26;39.57;102763.03;4988292;28;20884;-55
2022/08/08 07:45:01;;;;;;;6.18;2.40;;;;;;;28.04;40.28;102762.78;4987099;28;20043;-55
2022/08/08 07:47:27;;;;;;;4.78;2.40;;;;;;;27.66;39.96;102763.88;4980127;28;20038;-53
2022/08/08 07:49:52;;;;;;;5.28;2.47;;;;;;;28.19;39.31;102765.03;4990024;28;20389;-55
2022/08/08 07:52:18;;;;;;;6.40;2.15;;;;;;;28.62;39.00;102759.19;4984135;28;20049;-56
2022/08/08 07:55:04;;;;;;;6.55;2.10;;;;;;;29.27;38.01;102763.31;4995254;28;20516;-55
2022/08/08 07:57:57;;;;;;;5.57;2.13;;;;;;;28.95;37.49;102762.63;4987034;28;20581;-54
2022/08/08 08:00:28;;;;;;;6.40;2.10;;;;;;;27.47;41.11;102773.31;5000317;28;20029;-55
2022/08/08 08:03:00;;;;;;;5.82;2.20;;;;;;;28.11;38.88;102767.03;4971666;28;20487;-55
2022/08/08 08:05:27;;;;;;;4.05;2.08;;;;;;;27.78;39.27;102782.28;4977692;28;21392;-56
2022/08/08 08:08:03;;;;;;;4.80;2.10;;;;;;;26.74;41.96;102776.94;4987344;28;20021;-54
2022/08/08 08:10:29;;;;;;;6.10;2.72;;;;;;;26.24;42.73;102779.84;4982795;28;20037;-57
2022/08/08 08:13:26;;;;;;;5.60;2.05;;;;;;;25.69;43.70;102787.22;4983181;28;20030;-54
2022/08/08 08:16:10;;;;;;;8.63;2.70;;;;;;;26.00;45.59;102784.81;4983392;28;20049;-53
2022/08/08 08:18:51;;;;;;;4.57;2.40;;;;;;;27.35;42.37;102785.22;4983518;28;20512;-53
2022/08/08 08:21:18;;;;;;;6.38;2.30;;;;;;;27.71;39.43;102786.06;4981818;28;20079;-55
2022/08/08 08:23:44;;;;;;;5.97;2.40;;;;;;;27.41;40.60;102778.84;4982069;28;20565;-55
2022/08/08 08:26:11;;;;;;;5.57;2.20;;;;;;;28.47;38.37;102781.16;4986283;28;20412;-55
2022/08/08 08:28:36;;;;;;;4.65;2.20;;;;;;;28.28;38.47;102782.66;4983285;28;20595;-55
2022/08/08 08:31:09;;;;;;;4.30;2.30;;;;;;;28.93;37.34;102787.75;4985911;28;20025;-55
2022/08/08 08:33:34;;;;;;;4.05;2.13;;;;;;;28.38;38.90;102792.16;4979733;28;20065;-55
2022/08/08 08:36:04;;;;;;;6.07;2.55;;;;;;;27.11;41.43;102795.69;4966241;28;20219;-54
2022/08/08 08:38:38;;;;;;;7.28;2.58;;;;;;;27.19;40.90;102796.41;4985868;28;20433;-54
2022/08/08 08:41:11;;;;;;;3.90;2.20;;;;;;;26.71;42.89;102798.44;4983803;28;20671;-56
2022/08/08 08:43:39;;;;;;;6.17;2.47;;;;;;;26.33;42.21;102800.19;4980872;28;20037;-53
2022/08/08 08:46:08;;;;;;;5.03;2.10;;;;;;;25.13;43.76;102807.75;4982883;28;20137;-53
2022/08/08 08:48:34;;;;;;;3.92;1.98;;;;;;;24.94;44.21;102804.53;4979123;28;20029;-53
2022/08/08 08:51:01;;;;;;;4.95;2.10;;;;;;;24.99;45.41;102808.00;4980695;28;20741;-53
2022/08/08 08:53:29;;;;;;;6.32;2.17;;;;;;;24.54;46.31;102806.88;4965145;28;20045;-58
2022/08/08 08:55:55;;;;;;;4.07;2.40;;;;;;;24.64;46.16;102803.16;4983398;28;20038;-54
2022/08/08 08:58:32;;;;;;;6.25;2.55;;;;;;;24.68;46.83;102804.00;4973916;28;20061;-55
2022/08/08 09:01:03;;;;;;;7.93;2.55;;;;;;;24.56;47.73;102810.41;4931719;28;20029;-55
2022/08/08 09:03:30;;;;;;;5.68;2.40;;;;;;;24.22;47.08;102803.75;4983143;28;20042;-56
2022/08/08 09:05:59;;;;;;;3.78;2.03;;;;;;;24.18;47.84;102799.31;4986572;28;20025;-55
2022/08/08 09:08:26;;;;;;;4.93;2.30;;;;;;;24.21;47.64;102805.53;4985812;28;20041;-55
2022/08/08 09:10:52;;;;;;;4.28;2.40;;;;;;;24.33;48.57;102798.28;4983571;28;20041;-56
2022/08/08 09:13:24;;;;;;;4.68;2.30;;;;;;;24.48;46.58;102800.75;4987177;28;20033;-54
2022/08/08 09:15:49;;;;;;;7.93;2.00;;;;;;;24.09;47.23;102807.44;4977915;28;20060;-55
2022/08/08 09:18:22;;;;;;;4.72;1.80;;;;;;;24.95;45.83;102800.06;4986573;28;20554;-53
2022/08/08 09:20:51;;;;;;;3.07;1.70;;;;;;;25.56;44.43;102807.00;4985691;28;20032;-54
2022/08/08 09:23:18;;;;;;;3.58;1.48;;;;;;;25.85;40.39;102808.28;4977765;28;20042;-56
2022/08/08 09:25:52;;;;;;;7.38;2.00;;;;;;;25.91;42.56;102809.94;4973355;28;20060;-55
2022/08/08 09:28:18;;;;;;;4.25;1.83;;;;;;;26.31;42.23;102796.66;4988512;28;20052;-56
2022/08/08 09:30:48;;;;;;;3.53;1.80;;;;;;;26.63;40.79;102806.63;4992034;28;20905;-54
2022/08/08 09:33:16;;;;;;;5.40;1.70;;;;;;;26.34;40.84;102804.63;4979317;28;20036;-54
2022/08/08 09:35:48;;;;;;;3.53;1.92;;;;;;;26.40;43.23;102803.59;4980317;28;20721;-54
2022/08/08 09:38:42;;;;;;;6.80;2.08;;;;;;;26.36;41.63;102813.47;4989648;28;20037;-53
2022/08/08 09:41:15;;;;;;;5.22;2.00;;;;;;;26.00;43.28;102822.22;4977731;28;20615;-55
2022/08/08 09:43:56;;;;;;;4.83;1.90;;;;;;;25.59;44.54;102817.69;4964252;28;20029;-54
2022/08/08 09:46:23;;;;;;;7.80;2.00;;;;;;;25.54;45.00;102815.06;4982033;28;20043;-55
2022/08/08 09:48:54;;;;;;;3.85;1.83;;;;;;;25.87;44.04;102821.59;4979133;28;20042;-52
2022/08/08 09:51:28;;;;;;;3.28;1.63;;;;;;;26.11;41.40;102813.06;4985360;28;20030;-53
2022/08/08 09:54:01;;;;;;;3.88;1.55;;;;;;;26.56;39.72;102811.25;4985675;28;20582;-55
2022/08/08 09:56:33;;;;;;;3.75;1.65;;;;;;;26.50;39.95;102806.03;4992190;28;20037;-54
2022/08/08 09:59:02;;;;;;;4.10;1.70;;;;;;;26.75;39.57;102810.81;4988894;28;20040;-56
2022/08/08 10:01:34;;;;;;;2.30;1.40;;;;;;;26.82;41.17;102809.75;4961851;28;20121;-55
2022/08/08 10:04:00;;;;;;;3.03;1.50;;;;;;;26.20;40.06;102818.25;4985903;28;20240;-55
2022/08/08 10:06:26;;;;;;;3.20;1.73;;;;;;;26.13;41.13;102807.72;4948436;28;20033;-55
2022/08/08 10:08:52;;;;;;;4.60;1.73;;;;;;;26.61;40.56;102803.09;4992576;28;20728;-53
2022/08/08 10:11:24;;;;;;;3.47;1.80;;;;;;;26.75;39.30;102798.31;4970568;28;20056;-55
2022/08/08 10:13:54;;;;;;;3.53;1.80;;;;;;;27.16;38.54;102794.66;4976245;28;20029;-54
2022/08/08 10:16:20;;;;;;;2.80;1.75;;;;;;;26.88;38.78;102801.59;4957371;28;20037;-57
2022/08/08 10:18:46;;;;;;;2.28;1.60;;;;;;;26.51;38.97;102797.09;4937482;28;20145;-55
2022/08/08 10:21:15;;;;;;;3.97;1.85;;;;;;;26.64;39.26;102797.69;4950289;28;20265;-55
2022/08/08 10:23:45;;;;;;;3.28;1.65;;;;;;;26.75;40.41;102800.13;4974133;28;20413;-53
2022/08/08 10:26:19;;;;;;;3.17;1.67;;;;;;;26.16;40.03;102813.00;4988244;28;20026;-54
2022/08/08 10:29:00;;;;;;;3.85;1.73;;;;;;;26.04;40.07;102806.13;4985950;28;20445;-57
2022/08/08 10:34:16;;;;;;;2.80;1.58;;;;;;;25.55;40.80;102814.16;4966895;28;20256;-55
2022/08/08 10:36:43;;;;;;;5.50;1.90;;;;;;;25.36;41.81;102813.63;4977596;28;20022;-55
2022/08/08 10:39:42;;;;;;;4.55;1.67;;;;;;;25.44;41.04;102810.78;4958352;28;20033;-54
2022/08/08 10:42:10;;;;;;;2.90;1.70;;;;;;;26.12;41.28;102811.28;4993394;28;20041;-54
2022/08/08 10:44:41;;;;;;;5.28;1.88;;;;;;;26.23;40.14;102802.16;4985613;28;20033;-58
2022/08/08 10:47:11;;;;;;;2.22;1.60;;;;;;;26.35;40.07;102803.69;4990451;28;20041;-54
2022/08/08 10:49:36;;;;;;;3.47;1.90;;;;;;;26.13;42.84;102805.03;4962240;28;20570;-55
2022/08/08 10:52:03;;;;;;;4.43;1.80;;;;;;;25.78;40.61;102808.41;4974722;28;20045;-55
2022/08/08 10:54:28;;;;;;;3.60;1.80;;;;;;;25.82;40.84;102800.31;4961081;28;20427;-56
2022/08/08 10:57:03;;;;;;;3.42;1.60;;;;;;;26.45;39.52;102801.69;4990569;28;20022;-55
2022/08/08 10:59:29;;;;;;;4.50;1.60;;;;;;;26.68;39.27;102794.03;4988496;28;20496;-54
2022/08/08 11:01:54;;;;;;;3.70;1.63;;;;;;;26.45;38.63;102796.34;4989089;28;20021;-55
2022/08/08 11:04:20;;;;;;;3.17;1.50;;;;;;;26.72;38.97;102800.19;4964566;28;20041;-57
2022/08/08 11:06:46;;;;;;;2.00;1.40;;;;;;;26.78;38.98;102792.88;4982482;28;20032;-55
2022/08/08 11:09:12;;;;;;;2.60;1.50;;;;;;;27.24;37.90;102786.44;4943351;28;20045;-55
2022/08/08 11:11:43;;;;;;;4.65;1.60;;;;;;;27.04;38.90;102784.25;4976838;28;20352;-54
2022/08/08 11:14:11;;;;;;;3.65;1.40;;;;;;;27.88;36.21;102782.00;4972678;28;20144;-55
2022/08/08 11:16:43;;;;;;;2.65;1.40;;;;;;;28.03;36.28;102776.22;4979811;28;20316;-57
2022/08/08 11:19:15;;;;;;;3.28;1.30;;;;;;;27.53;37.25;102788.38;4982607;28;20030;-55
2022/08/08 11:21:44;;;;;;;4.25;1.73;;;;;;;26.82;38.17;102780.31;4975204;28;20088;-58
2022/08/08 11:24:11;;;;;;;4.75;1.58;;;;;;;26.96;38.33;102789.78;4968357;28;20936;-57
2022/08/08 11:26:41;;;;;;;3.25;1.40;;;;;;;27.34;36.49;102788.81;4981283;28;20517;-56
2022/08/08 11:29:10;;;;;;;4.38;1.60;;;;;;;26.96;38.86;102781.75;4988615;28;20052;-54
2022/08/08 11:31:47;;;;;;;3.92;1.50;;;;;;;26.93;37.71;102784.53;4969977;28;21822;-56
2022/08/08 11:34:17;;;;;;;3.40;1.50;;;;;;;27.05;39.06;102788.69;4977317;28;20037;-51
2022/08/08 11:36:43;;;;;;;2.42;1.40;;;;;;;27.28;38.00;102793.47;4977933;28;20041;-53
2022/08/08 11:39:11;;;;;;;2.92;1.63;;;;;;;26.84;39.23;102783.81;4967608;28;20417;-55
2022/08/08 11:41:38;;;;;;;3.28;1.65;;;;;;;27.08;38.86;102772.53;4966046;28;20048;-54
2022/08/08 11:44:09;;;;;;;2.72;1.58;;;;;;;27.33;38.19;102784.38;4986241;28;20358;-56
2022/08/08 11:46:35;;;;;;;4.80;1.60;;;;;;;27.99;36.99;102780.81;4981839;28;20064;-54
2022/08/08 11:49:04;;;;;;;2.20;1.40;;;;;;;28.33;35.53;102777.13;4982858;28;20064;-53
2022/08/08 11:52:05;;;;;;;3.05;1.50;;;;;;;27.46;35.90;102780.47;4979284;28;20248;-58
2022/08/08 11:54:33;;;;;;;3.08;1.70;;;;;;;27.09;38.03;102782.34;4985110;28;20107;-56
2022/08/08 11:57:11;;;;;;;4.00;1.70;;;;;;;27.69;37.92;102777.19;4988824;28;20037;-55
2022/08/08 11:59:52;;;;;;;5.32;1.73;;;;;;;28.05;36.89;102769.91;4976005;28;20042;-56
2022/08/08 12:02:23;;;;;;;3.28;1.40;;;;;;;28.45;35.08;102769.59;4981092;28;20041;-56
2022/08/08 12:05:00;;;;;;;4.30;1.27;;;;;;;27.93;35.36;102775.63;4982622;28;20433;-56
2022/08/08 12:07:26;;;;;;;2.90;1.50;;;;;;;27.49;36.32;102775.97;4969874;28;20032;-54